Portada
METAR-TAF:

METAR-TAF

Aeropuertos :

Al-Ula, Arabia Saudita

latitud: 26-29-00N, longitud: 038-07-01E, altitud: 624 m

Observación

El informe se hizo hace 1 hora y 17 minutos, a las 12:00 UTC
Viento 4 kt del norte
Temperatura 21°C
Humedad 17%
Presión 1021 hPa
Visibilidad 10 km o más
sin nubes por debajo de 1500 m y sin presencia de cumulonimbus.

METAR: OEAO 051200Z 36004KT CAVOK 21/M05 Q1021

Hora: 16:17 (13:17 UTC)

Pronóstico

El informe se hizo hace 2 horas y 17 minutos, a las 11:00 UTC
Pronóstico válido del 05 a las 12 UTC al 06 a las 18 UTC
Viento 15 kt del noreste
Visibilidad: 8000 m
Temporalmente
del 05 a las 12 UTC al 05 a las 18 UTC
Visibilidad: 4000 m
Polvo extendido, Ventisca alta de polvo
Evolucionando progresivamente
del 05 a las 18 UTC al 05 a las 20 UTC
Viento 8 kt del oeste-noroeste

TAF: OEAO 051100Z 0512/0618 04015KT 8000 NSC TEMPO 0512/0518 4000 DU BLDU BECMG 0518/0520 29008KT

Observaciones y pronósticos meteorológicos de más de 4000 aeropuertos (mensajes METAR y TAF).

Los puntos amarillos y rojos representan las estaciones disponibles.

Ponga el ratón en el punto deseado para ver el nombre de la estación.

Haga clic para ver las observaciones y los pronósticos meteorológicos.

Para cambiar el mapa : haga clic en los botones verdes con una cruz de color negro para hacer un zoom, en el botón verde con un guión para alejar o en las flechas verdes para mapas adyacentes.


METAR-TAF: